createdAt,value
2023-04-26T00:01:43.820Z,99273.49
2023-04-26T00:04:08.313Z,99273.58
2023-04-26T00:06:32.154Z,99271.73
2023-04-26T00:08:57.615Z,99274.73
2023-04-26T00:11:21.348Z,99274.15
2023-04-26T00:13:44.793Z,99275.79
2023-04-26T00:16:13.121Z,99280.79
2023-04-26T00:18:37.289Z,99281.00
2023-04-26T00:21:01.028Z,99294.09
2023-04-26T00:23:24.846Z,99292.48
2023-04-26T00:25:48.473Z,99300.16
2023-04-26T00:28:11.924Z,99299.92
2023-04-26T00:30:40.622Z,99301.27
2023-04-26T00:33:04.314Z,99300.27
2023-04-26T00:35:27.972Z,99306.02
2023-04-26T00:37:51.794Z,99308.52
2023-04-26T00:40:16.612Z,99314.09
2023-04-26T00:42:40.596Z,99319.67
2023-04-26T00:45:05.762Z,99322.60
2023-04-26T00:47:30.713Z,99323.08
2023-04-26T00:49:55.288Z,99322.71
2023-04-26T00:52:19.054Z,99321.34
2023-04-26T00:54:43.518Z,99324.93
2023-04-26T00:57:09.268Z,99324.54
2023-04-26T00:59:34.319Z,99328.50
2023-04-26T01:01:57.904Z,99329.88
2023-04-26T01:04:25.829Z,99334.17
2023-04-26T01:06:49.931Z,99332.59
2023-04-26T01:09:14.724Z,99331.41
2023-04-26T01:11:42.199Z,99336.39
2023-04-26T01:14:08.587Z,99332.91
2023-04-26T01:16:34.957Z,99335.66
2023-04-26T01:18:58.875Z,99338.23
2023-04-26T01:21:24.355Z,99338.20
2023-04-26T01:23:48.145Z,99341.29
2023-04-26T01:26:19.393Z,99344.84
2023-04-26T01:28:43.985Z,99342.52
2023-04-26T01:31:08.026Z,99343.29
2023-04-26T01:33:31.461Z,99340.67
2023-04-26T01:35:54.934Z,99345.98
2023-04-26T01:38:20.188Z,99347.15
2023-04-26T01:40:45.476Z,99346.60
2023-04-26T01:43:08.905Z,99352.50
2023-04-26T01:45:32.528Z,99351.29
2023-04-26T01:48:14.731Z,99343.52
2023-04-26T01:50:51.508Z,99343.70
2023-04-26T01:53:15.108Z,99342.16
2023-04-26T01:55:48.928Z,99340.66
2023-04-26T01:58:21.868Z,99338.77
2023-04-26T02:00:45.942Z,99340.52
2023-04-26T02:03:22.701Z,99340.28
2023-04-26T02:06:07.247Z,99341.95
2023-04-26T02:08:52.057Z,99345.45
2023-04-26T02:11:36.084Z,99351.23
2023-04-26T02:14:05.821Z,99353.86
2023-04-26T02:16:40.147Z,99356.86
2023-04-26T02:19:24.097Z,99358.29
2023-04-26T02:21:57.378Z,99358.48
2023-04-26T02:24:25.356Z,99361.28
2023-04-26T02:26:51.774Z,99360.27
2023-04-26T02:29:15.634Z,99359.29
2023-04-26T02:31:39.716Z,99360.23
2023-04-26T02:34:12.960Z,99361.30
2023-04-26T02:36:36.676Z,99354.62
2023-04-26T02:39:00.753Z,99353.80
2023-04-26T02:41:25.561Z,99352.13
2023-04-26T02:43:49.119Z,99358.14
2023-04-26T02:46:15.526Z,99356.13
2023-04-26T02:48:40.341Z,99356.36
2023-04-26T02:51:04.400Z,99364.11
2023-04-26T02:53:28.020Z,99360.13
2023-04-26T02:55:51.910Z,99358.12
2023-04-26T02:58:15.370Z,99356.48
2023-04-26T03:00:39.467Z,99358.98
2023-04-26T03:03:05.670Z,99359.71
2023-04-26T03:05:29.339Z,99362.20
2023-04-26T03:07:53.172Z,99361.80
2023-04-26T03:10:16.934Z,99359.27
2023-04-26T03:12:40.975Z,99361.75
2023-04-26T03:15:06.261Z,99363.63
2023-04-26T03:17:30.024Z,99361.04
2023-04-26T03:19:53.826Z,99359.47
2023-04-26T03:22:17.859Z,99359.13
2023-04-26T03:24:41.927Z,99361.41
2023-04-26T03:27:05.593Z,99362.96
2023-04-26T03:29:30.742Z,99363.90
2023-04-26T03:31:54.410Z,99368.85
2023-04-26T03:34:18.236Z,99373.00
2023-04-26T03:36:42.223Z,99373.86
2023-04-26T03:39:05.767Z,99376.06
2023-04-26T03:41:29.451Z,99377.95
2023-04-26T03:43:56.091Z,99378.45
2023-04-26T03:46:20.314Z,99382.52
2023-04-26T03:48:44.753Z,99383.10
2023-04-26T03:51:08.420Z,99383.56
2023-04-26T03:53:31.991Z,99384.71
2023-04-26T03:55:56.230Z,99385.67
2023-04-26T03:58:19.940Z,99385.75
2023-04-26T04:00:43.410Z,99388.07
2023-04-26T04:03:08.196Z,99390.58
2023-04-26T04:05:32.214Z,99388.39
2023-04-26T04:07:57.142Z,99392.74
2023-04-26T04:10:23.938Z,99397.09
2023-04-26T04:12:47.848Z,99395.34
2023-04-26T04:15:12.089Z,99397.19
2023-04-26T04:17:40.881Z,99399.77
2023-04-26T04:20:07.135Z,99394.03
2023-04-26T04:22:30.750Z,99398.09
2023-04-26T04:24:54.786Z,99398.20
2023-04-26T04:27:20.593Z,99397.38
2023-04-26T04:29:44.137Z,99396.52
2023-04-26T04:32:09.472Z,99396.09
2023-04-26T04:34:36.785Z,99396.23
2023-04-26T04:37:02.078Z,99399.50
2023-04-26T04:39:33.433Z,99399.75
2023-04-26T04:41:57.956Z,99399.17
2023-04-26T04:44:26.515Z,99400.33
2023-04-26T04:46:51.998Z,99398.73
2023-04-26T04:49:18.137Z,99398.46
2023-04-26T04:51:41.805Z,99395.66
2023-04-26T04:54:11.728Z,99400.59
2023-04-26T04:56:35.493Z,99394.02
2023-04-26T04:58:59.167Z,99394.96
2023-04-26T05:01:23.214Z,99397.89
2023-04-26T05:03:50.989Z,99399.77
2023-04-26T05:06:15.389Z,99398.64
2023-04-26T05:08:39.014Z,99405.21
2023-04-26T05:11:04.501Z,99408.50
2023-04-26T05:13:28.136Z,99412.22
2023-04-26T05:15:51.503Z,99412.47
2023-04-26T05:18:15.579Z,99416.23
2023-04-26T05:20:39.450Z,99416.22
2023-04-26T05:23:03.281Z,99422.57
2023-04-26T05:25:26.832Z,99426.95
2023-04-26T05:28:01.401Z,99426.52
2023-04-26T05:30:45.765Z,99429.34
2023-04-26T05:33:17.980Z,99422.23
2023-04-26T05:35:46.273Z,99417.22
2023-04-26T05:38:09.618Z,99422.45
2023-04-26T05:40:33.104Z,99417.67
2023-04-26T05:42:57.217Z,99416.23
2023-04-26T05:45:20.872Z,99407.59
2023-04-26T05:47:46.903Z,99413.52
2023-04-26T05:50:11.858Z,99408.99
2023-04-26T05:52:35.456Z,99406.90
2023-04-26T05:54:59.257Z,99408.48
2023-04-26T05:57:22.684Z,99404.20
2023-04-26T05:59:46.583Z,99401.98
2023-04-26T06:02:10.938Z,99401.13
2023-04-26T06:04:35.707Z,99402.32
2023-04-26T06:07:06.601Z,99404.21
2023-04-26T06:09:32.651Z,99400.69
2023-04-26T06:11:55.374Z,99407.12
2023-04-26T06:14:29.437Z,99407.09
2023-04-26T06:16:56.799Z,99401.46
2023-04-26T06:19:20.337Z,99399.41
2023-04-26T06:21:44.397Z,99400.15
2023-04-26T06:24:08.702Z,99399.67
2023-04-26T06:26:33.638Z,99403.21
2023-04-26T06:28:57.024Z,99400.52
2023-04-26T06:31:22.159Z,99402.23
2023-04-26T06:33:46.056Z,99400.96
2023-04-26T06:36:12.893Z,99399.55
2023-04-26T06:38:37.800Z,99401.20
2023-04-26T06:41:01.329Z,99399.14
2023-04-26T06:43:24.805Z,99404.27
2023-04-26T06:45:57.452Z,99404.48
2023-04-26T06:48:20.938Z,99407.95
2023-04-26T06:50:44.388Z,99407.86
2023-04-26T06:53:08.416Z,99409.89
2023-04-26T06:55:33.586Z,99409.68
2023-04-26T06:57:57.639Z,99409.99
2023-04-26T07:00:22.715Z,99406.05
2023-04-26T07:02:46.278Z,99410.58
2023-04-26T07:05:10.538Z,99414.52
2023-04-26T07:07:34.473Z,99415.87
2023-04-26T07:09:57.896Z,99415.64
2023-04-26T07:12:21.232Z,99416.65
2023-04-26T07:14:45.294Z,99420.52
2023-04-26T07:17:08.651Z,99425.27
2023-04-26T07:19:32.094Z,99424.67
2023-04-26T07:21:55.654Z,99429.52
2023-04-26T07:24:19.009Z,99426.55
2023-04-26T07:26:42.422Z,99430.02
2023-04-26T07:29:06.293Z,99434.83
2023-04-26T07:31:31.434Z,99438.12
2023-04-26T07:33:55.239Z,99438.83
2023-04-26T07:36:19.306Z,99450.33
2023-04-26T07:38:42.731Z,99447.36
2023-04-26T07:41:06.519Z,99446.42
2023-04-26T07:43:31.075Z,99448.61
2023-04-26T07:45:54.527Z,99452.80
2023-04-26T07:48:18.200Z,99453.02
2023-04-26T07:50:41.607Z,99459.67
2023-04-26T07:53:05.559Z,99463.64
2023-04-26T07:55:29.368Z,99459.66
2023-04-26T07:57:52.870Z,99463.41
2023-04-26T08:00:18.613Z,99454.73
2023-04-26T08:02:50.433Z,99465.58
2023-04-26T08:05:14.803Z,99465.27
2023-04-26T08:07:38.999Z,99462.95
2023-04-26T08:10:02.433Z,99466.63
2023-04-26T08:12:26.038Z,99477.33
2023-04-26T08:14:50.050Z,99485.44
2023-04-26T08:17:13.700Z,99486.48
2023-04-26T08:19:37.537Z,99501.13
2023-04-26T08:22:01.043Z,99501.02
2023-04-26T08:24:24.538Z,99500.10
2023-04-26T08:26:47.991Z,99497.46
2023-04-26T08:29:11.601Z,99496.56
2023-04-26T08:31:35.673Z,99499.07
2023-04-26T08:33:59.209Z,99496.45
2023-04-26T08:36:22.847Z,99495.27
2023-04-26T08:38:46.364Z,99497.31
2023-04-26T08:41:13.046Z,99490.74
2023-04-26T08:43:38.370Z,99496.05
2023-04-26T08:46:02.881Z,99503.41
2023-04-26T08:48:31.318Z,99510.21
2023-04-26T08:50:55.488Z,99510.95
2023-04-26T08:53:18.922Z,99510.48
2023-04-26T08:55:42.745Z,99505.35
2023-04-26T08:58:07.287Z,99510.09
2023-04-26T09:00:31.384Z,99516.89
2023-04-26T09:02:54.997Z,99522.67
2023-04-26T09:05:23.314Z,99524.17
2023-04-26T09:07:48.231Z,99523.59
2023-04-26T09:10:13.844Z,99523.15
2023-04-26T09:12:38.009Z,99530.95
2023-04-26T09:15:06.974Z,99524.91
2023-04-26T09:17:33.780Z,99536.94
2023-04-26T09:20:21.071Z,99542.10
2023-04-26T09:22:45.096Z,99539.95
2023-04-26T09:25:12.995Z,99548.58
2023-04-26T09:27:38.709Z,99550.36
2023-04-26T09:30:05.530Z,99556.91
2023-04-26T09:32:45.418Z,99552.80
2023-04-26T09:35:17.943Z,99553.33
2023-04-26T09:37:59.233Z,99554.98
2023-04-26T09:40:25.795Z,99555.66
2023-04-26T09:42:57.896Z,99550.69
2023-04-26T09:45:21.739Z,99557.25
2023-04-26T09:47:45.947Z,99559.99
2023-04-26T09:50:10.347Z,99560.95
2023-04-26T09:52:43.696Z,99560.92
2023-04-26T09:55:14.383Z,99561.36
2023-04-26T09:57:43.995Z,99564.27
2023-04-26T10:00:12.244Z,99563.70
2023-04-26T10:02:36.186Z,99563.13
2023-04-26T10:05:01.613Z,99557.58
2023-04-26T10:07:26.525Z,99552.25
2023-04-26T10:09:50.992Z,99553.48
2023-04-26T10:12:16.089Z,99552.98
2023-04-26T10:14:41.198Z,99556.70
2023-04-26T10:17:05.787Z,99558.11
2023-04-26T10:19:30.573Z,99560.73
2023-04-26T10:21:56.804Z,99566.83
2023-04-26T10:24:22.622Z,99563.77
2023-04-26T10:26:51.305Z,99561.06
2023-04-26T10:29:17.999Z,99560.04
2023-04-26T10:32:07.952Z,99557.71
2023-04-26T10:34:33.101Z,99563.48
2023-04-26T10:37:11.093Z,99568.55
2023-04-26T10:39:36.272Z,99567.52
2023-04-26T10:42:24.277Z,99574.41
2023-04-26T10:44:51.746Z,99579.31
2023-04-26T10:47:36.603Z,99581.14
2023-04-26T10:50:09.119Z,99583.10
2023-04-26T10:53:05.728Z,99577.45
2023-04-26T10:55:46.704Z,99580.30
2023-04-26T10:58:27.841Z,99579.38
2023-04-26T11:01:05.661Z,99579.25
2023-04-26T11:03:31.366Z,99582.27
2023-04-26T11:05:57.622Z,99585.55
2023-04-26T11:08:25.084Z,99590.80
2023-04-26T11:10:57.148Z,99594.90
2023-04-26T11:13:20.877Z,99598.61
2023-04-26T11:15:59.866Z,99599.39
2023-04-26T11:18:24.029Z,99605.22
2023-04-26T11:20:47.778Z,99604.41
2023-04-26T11:23:13.924Z,99609.02
2023-04-26T11:25:39.664Z,99613.25
2023-04-26T11:28:06.300Z,99614.42
2023-04-26T11:30:31.547Z,99613.19
2023-04-26T11:32:55.066Z,99614.98
2023-04-26T11:35:21.179Z,99613.20
2023-04-26T11:37:46.544Z,99605.36
2023-04-26T11:40:12.324Z,99609.85
2023-04-26T11:42:35.668Z,99608.62
2023-04-26T11:45:01.185Z,99609.31
2023-04-26T11:47:25.781Z,99609.79
2023-04-26T11:49:49.565Z,99612.55
2023-04-26T11:52:14.024Z,99609.89
2023-04-26T11:54:38.055Z,99612.07
2023-04-26T11:57:13.405Z,99610.83
2023-04-26T11:59:38.246Z,99613.23
2023-04-26T12:02:06.893Z,99614.44
2023-04-26T12:04:30.919Z,99618.54
2023-04-26T12:06:55.180Z,99621.39
2023-04-26T12:09:24.131Z,99623.98
2023-04-26T12:11:53.271Z,99627.91
2023-04-26T12:14:17.506Z,99628.67
2023-04-26T12:16:43.095Z,99628.64
2023-04-26T12:19:07.784Z,99623.77
2023-04-26T12:21:41.509Z,99630.55
2023-04-26T12:24:06.182Z,99632.39
2023-04-26T12:26:44.385Z,99631.39
2023-04-26T12:29:08.790Z,99628.67
2023-04-26T12:31:32.259Z,99636.02
2023-04-26T12:33:56.105Z,99639.41
2023-04-26T12:36:20.610Z,99648.10
2023-04-26T12:38:44.343Z,99646.86
2023-04-26T12:41:08.114Z,99649.90
2023-04-26T12:43:31.784Z,99652.33
2023-04-26T12:45:55.645Z,99653.73
2023-04-26T12:48:19.769Z,99646.80
2023-04-26T12:50:45.159Z,99638.70
2023-04-26T12:53:20.058Z,99645.98
2023-04-26T12:55:47.081Z,99648.58
2023-04-26T12:58:10.836Z,99650.36
2023-04-26T13:00:35.491Z,99657.27
2023-04-26T13:02:59.150Z,99654.64
2023-04-26T13:05:24.021Z,99663.63
2023-04-26T13:07:47.931Z,99666.16
2023-04-26T13:10:13.155Z,99682.21
2023-04-26T13:12:37.075Z,99678.04
2023-04-26T13:15:00.881Z,99685.48
2023-04-26T13:17:25.987Z,99683.42
2023-04-26T13:19:49.345Z,99684.24
2023-04-26T13:22:13.175Z,99678.86
2023-04-26T13:24:36.883Z,99676.48
2023-04-26T13:27:00.551Z,99676.38
2023-04-26T13:29:31.759Z,99677.86
2023-04-26T13:31:55.659Z,99682.68
2023-04-26T13:34:19.245Z,99683.39
2023-04-26T13:36:42.859Z,99682.77
2023-04-26T13:39:06.748Z,99686.51
2023-04-26T13:41:34.318Z,99687.88
2023-04-26T13:43:58.210Z,99690.81
2023-04-26T13:46:21.836Z,99690.84
2023-04-26T13:48:45.369Z,99694.79
2023-04-26T13:51:08.815Z,99704.29
2023-04-26T13:53:32.680Z,99703.67
2023-04-26T13:55:56.573Z,99701.13
2023-04-26T13:58:20.232Z,99704.22
2023-04-26T14:00:44.215Z,99706.73
2023-04-26T14:03:07.895Z,99701.73
2023-04-26T14:05:35.014Z,99701.21
2023-04-26T14:08:00.316Z,99706.27
2023-04-26T14:10:23.674Z,99703.24
2023-04-26T14:12:50.476Z,99712.67
2023-04-26T14:15:14.581Z,99719.95
2023-04-26T14:17:38.176Z,99720.08
2023-04-26T14:20:01.753Z,99725.52
2023-04-26T14:22:26.514Z,99719.48
2023-04-26T14:24:50.120Z,99731.19
2023-04-26T14:27:13.800Z,99734.05
2023-04-26T14:29:37.296Z,99736.78
2023-04-26T14:32:01.023Z,99735.83
2023-04-26T14:34:25.788Z,99743.56
2023-04-26T14:36:49.352Z,99750.05
2023-04-26T14:39:12.804Z,99750.10
2023-04-26T14:41:36.749Z,99750.69
2023-04-26T14:44:00.213Z,99751.48
2023-04-26T14:46:23.797Z,99749.96
2023-04-26T14:48:47.223Z,99745.09
2023-04-26T14:51:11.428Z,99751.00
2023-04-26T14:53:35.314Z,99754.14
2023-04-26T14:56:00.047Z,99760.86
2023-04-26T14:58:24.029Z,99765.83
2023-04-26T15:00:47.994Z,99765.52
2023-04-26T15:03:11.653Z,99760.85
2023-04-26T15:05:35.771Z,99759.41
2023-04-26T15:07:59.314Z,99760.23
2023-04-26T15:10:22.980Z,99761.67
2023-04-26T15:12:46.690Z,99764.33
2023-04-26T15:15:30.648Z,99766.14
2023-04-26T15:17:54.141Z,99770.77
2023-04-26T15:20:17.974Z,99772.70
2023-04-26T15:22:41.680Z,99774.96
2023-04-26T15:25:06.935Z,99776.55
2023-04-26T15:27:30.531Z,99777.77
2023-04-26T15:29:55.916Z,99776.77
2023-04-26T15:32:19.350Z,99779.82
2023-04-26T15:34:44.354Z,99783.80
2023-04-26T15:37:07.865Z,99784.55
2023-04-26T15:39:31.414Z,99782.45
2023-04-26T15:41:54.936Z,99783.77
2023-04-26T15:44:21.892Z,99782.60
2023-04-26T15:46:48.502Z,99783.71
2023-04-26T15:49:14.948Z,99781.92
2023-04-26T15:51:41.792Z,99780.46
2023-04-26T15:54:06.012Z,99783.48
2023-04-26T15:56:29.641Z,99779.73
2023-04-26T15:58:53.415Z,99779.57
2023-04-26T16:01:18.193Z,99779.75
2023-04-26T16:03:53.025Z,99780.66
2023-04-26T16:06:16.676Z,99777.63
2023-04-26T16:08:41.063Z,99780.27
2023-04-26T16:11:05.334Z,99784.16
2023-04-26T16:13:29.762Z,99783.52
2023-04-26T16:15:53.345Z,99786.44
2023-04-26T16:18:17.220Z,99789.52
2023-04-26T16:20:40.670Z,99790.53
2023-04-26T16:23:04.141Z,99788.81
2023-04-26T16:25:27.693Z,99787.95
2023-04-26T16:27:51.161Z,99791.48
2023-04-26T16:30:15.369Z,99796.15
2023-04-26T16:32:39.155Z,99795.64
2023-04-26T16:35:02.702Z,99796.18
2023-04-26T16:37:26.480Z,99796.33
2023-04-26T16:39:53.698Z,99798.58
2023-04-26T16:42:17.051Z,99803.83
2023-04-26T16:44:40.813Z,99804.15
2023-04-26T16:47:05.142Z,99808.66
2023-04-26T16:49:29.043Z,99810.94
2023-04-26T16:51:58.040Z,99808.91
2023-04-26T16:54:21.781Z,99809.56
2023-04-26T16:56:45.700Z,99815.30
2023-04-26T16:59:09.268Z,99815.34
2023-04-26T17:01:33.203Z,99813.30
2023-04-26T17:03:56.855Z,99817.19
2023-04-26T17:06:23.986Z,99818.63
2023-04-26T17:08:47.766Z,99819.86
2023-04-26T17:11:15.158Z,99819.23
2023-04-26T17:13:42.063Z,99819.28
2023-04-26T17:16:07.353Z,99821.25
2023-04-26T17:18:31.028Z,99824.05
2023-04-26T17:20:55.720Z,99828.10
2023-04-26T17:23:20.277Z,99828.86
2023-04-26T17:25:43.995Z,99832.69
2023-04-26T17:28:07.370Z,99832.14
2023-04-26T17:30:31.020Z,99836.69
2023-04-26T17:32:55.388Z,99837.41
2023-04-26T17:35:19.010Z,99841.05
2023-04-26T17:37:43.434Z,99842.45
2023-04-26T17:40:09.363Z,99844.74
2023-04-26T17:42:35.663Z,99842.19
2023-04-26T17:45:01.736Z,99841.86
2023-04-26T17:47:36.373Z,99840.38
2023-04-26T17:50:21.243Z,99849.81
2023-04-26T17:52:45.009Z,99850.63
2023-04-26T17:55:09.593Z,99854.33
2023-04-26T17:57:33.773Z,99858.69
2023-04-26T18:00:09.593Z,99864.82
2023-04-26T18:02:33.552Z,99864.67
2023-04-26T18:05:00.419Z,99866.98
2023-04-26T18:07:26.470Z,99869.60
2023-04-26T18:09:50.148Z,99874.33
2023-04-26T18:12:17.134Z,99877.49
2023-04-26T18:14:52.108Z,99877.52
2023-04-26T18:17:16.110Z,99876.54
2023-04-26T18:19:39.762Z,99880.55
2023-04-26T18:22:07.172Z,99885.11
2023-04-26T18:24:30.874Z,99886.21
2023-04-26T18:26:54.750Z,99889.53
2023-04-26T18:29:21.024Z,99891.31
2023-04-26T18:31:44.688Z,99887.89
2023-04-26T18:34:10.124Z,99895.17
2023-04-26T18:36:33.969Z,99897.67
2023-04-26T18:38:58.625Z,99901.89
2023-04-26T18:41:24.062Z,99901.95
2023-04-26T18:43:47.798Z,99908.89
2023-04-26T18:46:11.312Z,99905.29
2023-04-26T18:48:35.446Z,99908.61
2023-04-26T18:50:59.213Z,99909.65
2023-04-26T18:53:23.216Z,99909.12
2023-04-26T18:55:46.960Z,99907.13
2023-04-26T18:58:10.838Z,99911.34
2023-04-26T19:00:34.267Z,99913.42
2023-04-26T19:03:00.194Z,99914.95
2023-04-26T19:05:23.713Z,99919.98
2023-04-26T19:07:47.120Z,99918.80
2023-04-26T19:10:11.577Z,99919.69
2023-04-26T19:12:35.199Z,99921.52
2023-04-26T19:14:58.790Z,99920.23
2023-04-26T19:17:22.565Z,99922.90
2023-04-26T19:19:46.496Z,99925.08
2023-04-26T19:22:09.901Z,99926.71
2023-04-26T19:24:33.343Z,99930.83
2023-04-26T19:26:57.212Z,99932.73
2023-04-26T19:29:20.817Z,99935.13
2023-04-26T19:31:44.784Z,99935.27
2023-04-26T19:34:09.319Z,99932.65
2023-04-26T19:36:35.642Z,99931.37
2023-04-26T19:38:59.565Z,99931.19
2023-04-26T19:41:23.833Z,99933.06
2023-04-26T19:43:47.402Z,99933.17
2023-04-26T19:46:14.780Z,99928.30
2023-04-26T19:48:38.513Z,99930.86
2023-04-26T19:51:02.040Z,99932.32
2023-04-26T19:53:25.563Z,99932.56
2023-04-26T19:55:49.838Z,99930.09
2023-04-26T19:58:13.450Z,99938.09
2023-04-26T20:00:38.069Z,99939.35
2023-04-26T20:03:03.019Z,99943.58
2023-04-26T20:05:27.193Z,99939.16
2023-04-26T20:07:50.691Z,99943.56
2023-04-26T20:10:15.206Z,99945.00
2023-04-26T20:12:38.619Z,99943.71
2023-04-26T20:15:02.169Z,99944.17
2023-04-26T20:17:25.922Z,99948.58
2023-04-26T20:19:49.511Z,99946.79
2023-04-26T20:22:13.035Z,99951.02
2023-04-26T20:24:36.733Z,99955.77
2023-04-26T20:27:01.421Z,99953.27
2023-04-26T20:29:27.959Z,99954.91
2023-04-26T20:31:51.591Z,99959.30
2023-04-26T20:34:15.181Z,99959.55
2023-04-26T20:36:38.973Z,99960.32
2023-04-26T20:39:02.712Z,99956.30
2023-04-26T20:41:26.129Z,99958.30
2023-04-26T20:43:49.612Z,99958.52
2023-04-26T20:46:13.310Z,99961.52
2023-04-26T20:48:36.783Z,99958.67
2023-04-26T20:51:01.384Z,99958.90
2023-04-26T20:53:26.316Z,99962.55
2023-04-26T20:55:52.402Z,99959.29
2023-04-26T20:58:16.187Z,99959.48
2023-04-26T21:00:41.687Z,99963.64
2023-04-26T21:03:05.474Z,99959.91
2023-04-26T21:05:29.449Z,99961.52
2023-04-26T21:07:54.626Z,99965.21
2023-04-26T21:10:18.322Z,99966.30
2023-04-26T21:12:41.878Z,99964.95
2023-04-26T21:15:08.165Z,99970.14
2023-04-26T21:17:31.762Z,99968.44
2023-04-26T21:19:58.585Z,99971.61
2023-04-26T21:22:22.561Z,99972.37
2023-04-26T21:24:46.067Z,99976.90
2023-04-26T21:27:10.181Z,99982.63
2023-04-26T21:29:36.496Z,99982.48
2023-04-26T21:31:59.975Z,99982.67
2023-04-26T21:34:23.716Z,99988.42
2023-04-26T21:36:47.385Z,99986.59
2023-04-26T21:39:11.374Z,99992.34
2023-04-26T21:41:38.800Z,99994.79
2023-04-26T21:44:02.699Z,99995.50
2023-04-26T21:46:37.782Z,100002.98
2023-04-26T21:49:01.593Z,100002.48
2023-04-26T21:51:25.377Z,100007.88
2023-04-26T21:53:48.834Z,100010.50
2023-04-26T21:56:14.325Z,100011.73
2023-04-26T21:58:37.877Z,100010.06
2023-04-26T22:01:09.351Z,100012.48
2023-04-26T22:03:33.236Z,100017.37
2023-04-26T22:05:57.045Z,100019.14
2023-04-26T22:08:22.777Z,100019.23
2023-04-26T22:10:46.634Z,100025.96
2023-04-26T22:13:10.511Z,100026.16
2023-04-26T22:15:37.191Z,100029.46
2023-04-26T22:18:01.042Z,100032.10
2023-04-26T22:20:25.260Z,100037.14
2023-04-26T22:23:09.391Z,100041.14
2023-04-26T22:25:34.773Z,100042.70
2023-04-26T22:27:58.191Z,100046.87
2023-04-26T22:30:25.546Z,100044.85
2023-04-26T22:32:52.969Z,100046.95
2023-04-26T22:35:16.443Z,100045.42
2023-04-26T22:37:40.622Z,100050.62
2023-04-26T22:40:07.473Z,100052.20
2023-04-26T22:42:30.916Z,100053.23
2023-04-26T22:44:54.480Z,100056.36
2023-04-26T22:47:18.164Z,100060.68
2023-04-26T22:49:41.640Z,100061.91
2023-04-26T22:52:09.790Z,100060.75
2023-04-26T22:54:40.766Z,100066.98
2023-04-26T22:57:04.981Z,100067.01
2023-04-26T22:59:29.303Z,100068.05
2023-04-26T23:01:53.382Z,100073.05
2023-04-26T23:04:19.472Z,100074.46
2023-04-26T23:07:03.658Z,100082.74
2023-04-26T23:09:29.834Z,100082.80
2023-04-26T23:11:56.424Z,100087.81
2023-04-26T23:14:23.677Z,100084.55
2023-04-26T23:16:47.178Z,100088.17
2023-04-26T23:19:10.782Z,100088.71
2023-04-26T23:21:37.903Z,100086.84
2023-04-26T23:24:01.449Z,100093.20
2023-04-26T23:26:24.969Z,100090.83
2023-04-26T23:28:51.734Z,100092.73
2023-04-26T23:31:26.465Z,100097.04
2023-04-26T23:33:49.919Z,100094.66
2023-04-26T23:36:13.690Z,100091.75
2023-04-26T23:38:37.155Z,100093.66
2023-04-26T23:41:00.788Z,100092.80
2023-04-26T23:43:25.006Z,100092.66
2023-04-26T23:45:49.586Z,100096.13
2023-04-26T23:48:13.598Z,100096.16
2023-04-26T23:50:37.326Z,100101.52
2023-04-26T23:53:00.808Z,100096.86
2023-04-26T23:55:24.226Z,100100.66
2023-04-26T23:57:48.045Z,100100.34
